sensor_id;sensor_type;location;lat;lon;timestamp;pressure;altitude;pressure_sealevel;temperature;humidity
46690;BME280;32423;45.398;10.874;2022-09-01T00:00:12;100466.34;;;25.60;57.01
46690;BME280;32423;45.398;10.874;2022-09-01T00:02:58;100472.38;;;25.54;57.14
46690;BME280;32423;45.398;10.874;2022-09-01T00:05:43;100484.47;;;25.44;57.84
46690;BME280;32423;45.398;10.874;2022-09-01T00:08:29;100467.75;;;25.44;57.64
46690;BME280;32423;45.398;10.874;2022-09-01T00:11:14;100471.63;;;25.50;57.42
46690;BME280;32423;45.398;10.874;2022-09-01T00:14:01;100466.06;;;25.50;57.64
46690;BME280;32423;45.398;10.874;2022-09-01T00:16:46;100456.88;;;25.53;57.74
46690;BME280;32423;45.398;10.874;2022-09-01T00:19:32;100466.06;;;25.50;57.74
46690;BME280;32423;45.398;10.874;2022-09-01T00:22:16;100460.53;;;25.47;58.17
46690;BME280;32423;45.398;10.874;2022-09-01T00:25:02;100454.19;;;25.46;57.72
46690;BME280;32423;45.398;10.874;2022-09-01T00:27:48;100459.88;;;25.39;58.13
46690;BME280;32423;45.398;10.874;2022-09-01T00:30:33;100451.88;;;25.41;58.02
46690;BME280;32423;45.398;10.874;2022-09-01T00:33:18;100458.66;;;25.40;57.84
46690;BME280;32423;45.398;10.874;2022-09-01T00:36:03;100456.31;;;25.39;57.97
46690;BME280;32423;45.398;10.874;2022-09-01T00:39:09;100463.09;;;25.38;58.06
46690;BME280;32423;45.398;10.874;2022-09-01T00:41:54;100458.81;;;25.30;58.07
46690;BME280;32423;45.398;10.874;2022-09-01T00:44:39;100450.59;;;25.23;58.41
46690;BME280;32423;45.398;10.874;2022-09-01T00:47:24;100451.38;;;25.23;58.41
46690;BME280;32423;45.398;10.874;2022-09-01T00:50:11;100448.63;;;25.20;58.92
46690;BME280;32423;45.398;10.874;2022-09-01T00:52:56;100453.97;;;25.10;58.73
46690;BME280;32423;45.398;10.874;2022-09-01T00:55:41;100456.38;;;25.08;59.21
46690;BME280;32423;45.398;10.874;2022-09-01T00:58:27;100451.66;;;25.05;59.11
46690;BME280;32423;45.398;10.874;2022-09-01T01:01:13;100458.78;;;25.06;59.11
46690;BME280;32423;45.398;10.874;2022-09-01T01:03:57;100450.81;;;25.08;59.14
46690;BME280;32423;45.398;10.874;2022-09-01T01:06:50;100448.44;;;25.07;59.03
46690;BME280;32423;45.398;10.874;2022-09-01T01:09:43;100455.53;;;25.11;58.80
46690;BME280;32423;45.398;10.874;2022-09-01T01:12:29;100468.66;;;25.11;58.86
46690;BME280;32423;45.398;10.874;2022-09-01T01:15:14;100465.88;;;25.11;58.96
46690;BME280;32423;45.398;10.874;2022-09-01T01:18:00;100464.28;;;25.10;58.73
46690;BME280;32423;45.398;10.874;2022-09-01T01:20:46;100461.50;;;25.10;58.93
46690;BME280;32423;45.398;10.874;2022-09-01T01:24:07;100465.53;;;25.09;58.80
46690;BME280;32423;45.398;10.874;2022-09-01T01:26:53;100468.34;;;25.05;58.79
46690;BME280;32423;45.398;10.874;2022-09-01T01:29:44;100462.03;;;25.01;58.86
46690;BME280;32423;45.398;10.874;2022-09-01T01:32:31;100457.75;;;24.97;59.59
46690;BME280;32423;45.398;10.874;2022-09-01T01:35:17;100464.28;;;25.10;58.84
46690;BME280;32423;45.398;10.874;2022-09-01T01:38:06;100467.84;;;25.14;58.70
46690;BME280;32423;45.398;10.874;2022-09-01T01:40:52;100460.22;;;25.18;58.66
46690;BME280;32423;45.398;10.874;2022-09-01T01:43:40;100462.16;;;25.21;58.52
46690;BME280;32423;45.398;10.874;2022-09-01T01:46:25;100463.00;;;25.18;58.74
46690;BME280;32423;45.398;10.874;2022-09-01T01:49:11;100465.78;;;25.18;58.91
46690;BME280;32423;45.398;10.874;2022-09-01T01:51:59;100465.81;;;25.14;58.91
46690;BME280;32423;45.398;10.874;2022-09-01T01:54:49;100464.25;;;25.13;58.94
46690;BME280;32423;45.398;10.874;2022-09-01T01:57:34;100459.97;;;25.09;59.29
46690;BME280;32423;45.398;10.874;2022-09-01T02:00:22;100469.88;;;25.10;59.37
46690;BME280;32423;45.398;10.874;2022-09-01T02:03:07;100465.16;;;25.07;59.23
46690;BME280;32423;45.398;10.874;2022-09-01T02:05:54;100463.94;;;25.08;59.24
46690;BME280;32423;45.398;10.874;2022-09-01T02:08:39;100462.84;;;25.02;59.64
46690;BME280;32423;45.398;10.874;2022-09-01T02:11:25;100466.34;;;25.06;59.59
46690;BME280;32423;45.398;10.874;2022-09-01T02:14:11;100462.84;;;25.02;59.64
46690;BME280;32423;45.398;10.874;2022-09-01T02:16:58;100459.66;;;25.03;59.62
46690;BME280;32423;45.398;10.874;2022-09-01T02:19:49;100460.78;;;25.06;59.56
46690;BME280;32423;45.398;10.874;2022-09-01T02:22:42;100463.63;;;25.02;59.96
46690;BME280;32423;45.398;10.874;2022-09-01T02:25:27;100462.09;;;24.98;60.02
46690;BME280;32423;45.398;10.874;2022-09-01T02:28:14;100460.19;;;24.91;60.45
46690;BME280;32423;45.398;10.874;2022-09-01T02:31:02;100461.06;;;24.85;60.83
46690;BME280;32423;45.398;10.874;2022-09-01T02:33:48;100467.09;;;24.80;61.00
46690;BME280;32423;45.398;10.874;2022-09-01T02:36:33;100466.28;;;24.79;61.28
46690;BME280;32423;45.398;10.874;2022-09-01T02:39:23;100458.78;;;24.76;61.22
46690;BME280;32423;45.398;10.874;2022-09-01T02:42:09;100458.41;;;24.74;61.33
46690;BME280;32423;45.398;10.874;2022-09-01T02:44:57;100460.78;;;24.76;61.33
46690;BME280;32423;45.398;10.874;2022-09-01T02:47:42;100460.91;;;24.68;61.64
46690;BME280;32423;45.398;10.874;2022-09-01T02:50:29;100460.84;;;24.72;61.63
46690;BME280;32423;45.398;10.874;2022-09-01T02:53:16;100452.81;;;24.78;61.48
46690;BME280;32423;45.398;10.874;2022-09-01T02:56:05;100454.69;;;24.84;61.30
46690;BME280;32423;45.398;10.874;2022-09-01T02:58:55;100445.88;;;24.93;60.62
46690;BME280;32423;45.398;10.874;2022-09-01T03:01:42;100445.44;;;24.94;60.66
46690;BME280;32423;45.398;10.874;2022-09-01T03:04:31;100442.97;;;25.00;60.51
46690;BME280;32423;45.398;10.874;2022-09-01T03:07:18;100445.03;;;24.96;60.85
46690;BME280;32423;45.398;10.874;2022-09-01T03:10:06;100447.81;;;24.96;61.07
46690;BME280;32423;45.398;10.874;2022-09-01T03:12:53;100449.78;;;24.99;60.98
46690;BME280;32423;45.398;10.874;2022-09-01T03:15:40;100439.13;;;24.94;61.09
46690;BME280;32423;45.398;10.874;2022-09-01T03:18:25;100448.66;;;24.93;61.10
46690;BME280;32423;45.398;10.874;2022-09-01T03:21:10;100445.16;;;24.89;60.83
46690;BME280;32423;45.398;10.874;2022-09-01T03:24:00;100444.00;;;24.83;61.19
46690;BME280;32423;45.398;10.874;2022-09-01T03:26:49;100440.03;;;24.84;61.19
46690;BME280;32423;45.398;10.874;2022-09-01T03:29:34;100441.69;;;24.78;61.11
46690;BME280;32423;45.398;10.874;2022-09-01T03:32:20;100438.06;;;24.81;61.13
46690;BME280;32423;45.398;10.874;2022-09-01T03:35:06;100438.44;;;24.83;60.91
46690;BME280;32423;45.398;10.874;2022-09-01T03:37:52;100441.56;;;24.85;61.10
46690;BME280;32423;45.398;10.874;2022-09-01T03:40:39;100435.88;;;24.68;61.76
46690;BME280;32423;45.398;10.874;2022-09-01T03:43:24;100444.22;;;24.68;61.90
46690;BME280;32423;45.398;10.874;2022-09-01T03:46:10;100444.94;;;24.73;61.95
46690;BME280;32423;45.398;10.874;2022-09-01T03:48:57;100442.03;;;24.80;62.07
46690;BME280;32423;45.398;10.874;2022-09-01T03:51:47;100442.38;;;24.89;61.56
46690;BME280;32423;45.398;10.874;2022-09-01T03:54:32;100434.28;;;24.98;61.49
46690;BME280;32423;45.398;10.874;2022-09-01T03:57:17;100429.03;;;25.03;61.35
46690;BME280;32423;45.398;10.874;2022-09-01T04:00:03;100434.47;;;25.10;61.19
46690;BME280;32423;45.398;10.874;2022-09-01T04:02:58;100433.22;;;25.15;60.84
46690;BME280;32423;45.398;10.874;2022-09-01T04:05:45;100432.84;;;25.13;60.99
46690;BME280;32423;45.398;10.874;2022-09-01T04:08:30;100436.44;;;25.13;61.01
46690;BME280;32423;45.398;10.874;2022-09-01T04:11:17;100435.56;;;25.17;61.03
46690;BME280;32423;45.398;10.874;2022-09-01T04:14:09;100438.28;;;25.20;61.08
46690;BME280;32423;45.398;10.874;2022-09-01T04:16:56;100433.22;;;25.15;61.12
46690;BME280;32423;45.398;10.874;2022-09-01T04:20:01;100430.44;;;25.15;61.28
46690;BME280;32423;45.398;10.874;2022-09-01T04:22:52;100437.72;;;25.05;61.75
46690;BME280;32423;45.398;10.874;2022-09-01T04:25:39;100439.69;;;25.08;61.70
46690;BME280;32423;45.398;10.874;2022-09-01T04:28:31;100439.63;;;25.12;61.74
46690;BME280;32423;45.398;10.874;2022-09-01T04:31:20;100429.75;;;25.07;62.10
46690;BME280;32423;45.398;10.874;2022-09-01T04:34:07;100432.97;;;25.06;61.95
46690;BME280;32423;45.398;10.874;2022-09-01T04:37:00;100432.97;;;25.06;61.98
46690;BME280;32423;45.398;10.874;2022-09-01T04:39:51;100438.13;;;25.07;62.52
46690;BME280;32423;45.398;10.874;2022-09-01T04:42:36;100443.84;;;24.97;63.07
46690;BME280;32423;45.398;10.874;2022-09-01T04:45:21;100441.53;;;24.92;62.72
46690;BME280;32423;45.398;10.874;2022-09-01T04:48:13;100439.13;;;24.94;62.72
46690;BME280;32423;45.398;10.874;2022-09-01T04:50:58;100435.53;;;24.93;63.18
46690;BME280;32423;45.398;10.874;2022-09-01T04:53:47;100428.28;;;24.69;64.30
46690;BME280;32423;45.398;10.874;2022-09-01T04:56:32;100439.19;;;24.87;63.58
46690;BME280;32423;45.398;10.874;2022-09-01T04:59:31;100437.41;;;25.00;63.44
46690;BME280;32423;45.398;10.874;2022-09-01T05:02:18;100436.47;;;25.10;63.57
46690;BME280;32423;45.398;10.874;2022-09-01T05:05:03;100433.22;;;25.15;63.22
46690;BME280;32423;45.398;10.874;2022-09-01T05:07:49;100431.53;;;25.21;62.98
46690;BME280;32423;45.398;10.874;2022-09-01T05:10:43;100431.47;;;25.25;62.81
46690;BME280;32423;45.398;10.874;2022-09-01T05:13:36;100435.81;;;25.26;62.42
46690;BME280;32423;45.398;10.874;2022-09-01T05:16:25;100433.09;;;25.22;61.67
46690;BME280;32423;45.398;10.874;2022-09-01T05:19:16;100435.50;;;25.20;61.24
46690;BME280;32423;45.398;10.874;2022-09-01T05:22:06;100429.53;;;25.22;61.67
46690;BME280;32423;45.398;10.874;2022-09-01T05:24:58;100425.91;;;25.25;62.15
46690;BME280;32423;45.398;10.874;2022-09-01T05:27:58;100432.25;;;25.25;62.19
46690;BME280;32423;45.398;10.874;2022-09-01T05:30:45;100427.84;;;25.28;62.13
46690;BME280;32423;45.398;10.874;2022-09-01T05:33:31;100424.28;;;25.27;61.92
46690;BME280;32423;45.398;10.874;2022-09-01T05:36:21;100426.22;;;25.30;62.27
46690;BME280;32423;45.398;10.874;2022-09-01T05:39:08;100432.63;;;25.27;62.05
46690;BME280;32423;45.398;10.874;2022-09-01T05:41:57;100434.56;;;25.30;62.19
46690;BME280;32423;45.398;10.874;2022-09-01T05:44:43;100427.44;;;25.29;62.26
46690;BME280;32423;45.398;10.874;2022-09-01T05:47:29;100427.44;;;25.29;62.18
46690;BME280;32423;45.398;10.874;2022-09-01T05:50:14;100428.19;;;25.30;62.58
46690;BME280;32423;45.398;10.874;2022-09-01T05:53:00;100434.56;;;25.30;62.18
46690;BME280;32423;45.398;10.874;2022-09-01T05:55:47;100443.69;;;25.31;62.24
46690;BME280;32423;45.398;10.874;2022-09-01T05:58:33;100440.13;;;25.30;61.80
46690;BME280;32423;45.398;10.874;2022-09-01T06:01:22;100443.28;;;25.32;62.00
46690;BME280;32423;45.398;10.874;2022-09-01T06:04:09;100450.06;;;25.31;62.10
46690;BME280;32423;45.398;10.874;2022-09-01T06:06:54;100442.50;;;25.32;61.91
46690;BME280;32423;45.398;10.874;2022-09-01T06:09:43;100446.84;;;25.33;61.94
46690;BME280;32423;45.398;10.874;2022-09-01T06:12:29;100459.19;;;25.32;62.03
46690;BME280;32423;45.398;10.874;2022-09-01T06:15:14;100462.41;;;25.30;61.72
46690;BME280;32423;45.398;10.874;2022-09-01T06:18:08;100465.56;;;25.32;61.05
46690;BME280;32423;45.398;10.874;2022-09-01T06:21:03;100466.75;;;25.31;61.23
46690;BME280;32423;45.398;10.874;2022-09-01T06:23:49;100466.75;;;25.31;61.41
46690;BME280;32423;45.398;10.874;2022-09-01T06:26:36;100464.84;;;25.28;60.89
46690;BME280;32423;45.398;10.874;2022-09-01T06:29:22;100468.81;;;25.27;61.29
46690;BME280;32423;45.398;10.874;2022-09-01T06:32:08;100477.53;;;25.29;61.86
46690;BME280;32423;45.398;10.874;2022-09-01T06:34:54;100477.91;;;25.31;61.57
46690;BME280;32423;45.398;10.874;2022-09-01T06:37:42;100484.31;;;25.28;61.75
46690;BME280;32423;45.398;10.874;2022-09-01T06:40:30;100492.28;;;25.26;61.65
46690;BME280;32423;45.398;10.874;2022-09-01T06:43:15;100495.81;;;25.30;61.86
46690;BME280;32423;45.398;10.874;2022-09-01T06:46:05;100502.94;;;25.31;62.10
46690;BME280;32423;45.398;10.874;2022-09-01T06:48:50;100503.75;;;25.32;62.01
46690;BME280;32423;45.398;10.874;2022-09-01T06:51:34;100510.47;;;25.34;61.85
46690;BME280;32423;45.398;10.874;2022-09-01T06:54:19;100514.88;;;25.32;62.13
46690;BME280;32423;45.398;10.874;2022-09-01T06:57:06;100517.25;;;25.33;61.91
46690;BME280;32423;45.398;10.874;2022-09-01T06:59:51;100518.44;;;25.32;61.98
46690;BME280;32423;45.398;10.874;2022-09-01T07:02:37;100518.03;;;25.34;62.24
46690;BME280;32423;45.398;10.874;2022-09-01T07:05:39;100527.53;;;25.36;61.76
46690;BME280;32423;45.398;10.874;2022-09-01T07:08:25;100531.53;;;25.35;61.78
46690;BME280;32423;45.398;10.874;2022-09-01T07:11:27;100529.91;;;25.38;61.77
46690;BME280;32423;45.398;10.874;2022-09-01T07:14:14;100533.09;;;25.36;60.99
46690;BME280;32423;45.398;10.874;2022-09-01T07:17:00;100541.03;;;25.38;60.92
46690;BME280;32423;45.398;10.874;2022-09-01T07:19:45;100536.75;;;25.33;60.11
46690;BME280;32423;45.398;10.874;2022-09-01T07:22:31;100534.69;;;25.37;60.66
46690;BME280;32423;45.398;10.874;2022-09-01T07:25:17;100546.28;;;25.32;60.03
46690;BME280;32423;45.398;10.874;2022-09-01T07:28:25;100543.41;;;25.39;60.53
46690;BME280;32423;45.398;10.874;2022-09-01T07:31:25;100543.03;;;25.37;60.06
46690;BME280;32423;45.398;10.874;2022-09-01T07:34:12;100550.19;;;25.38;59.82
46690;BME280;32423;45.398;10.874;2022-09-01T07:36:57;100549.13;;;25.29;58.70
46690;BME280;32423;45.398;10.874;2022-09-01T07:39:43;100553.06;;;25.31;59.09
46690;BME280;32423;45.398;10.874;2022-09-01T07:42:54;100561.69;;;25.40;59.78
46690;BME280;32423;45.398;10.874;2022-09-01T07:46:03;100559.28;;;25.42;59.77
46690;BME280;32423;45.398;10.874;2022-09-01T07:48:51;100557.28;;;25.43;60.25
46690;BME280;32423;45.398;10.874;2022-09-01T07:51:36;100563.25;;;25.41;59.21
46690;BME280;32423;45.398;10.874;2022-09-01T07:54:21;100558.88;;;25.40;58.77
46690;BME280;32423;45.398;10.874;2022-09-01T07:57:09;100563.25;;;25.41;58.68
46690;BME280;32423;45.398;10.874;2022-09-01T07:59:54;100560.78;;;25.47;59.61
46690;BME280;32423;45.398;10.874;2022-09-01T08:02:57;100562.44;;;25.44;58.61
46690;BME280;32423;45.398;10.874;2022-09-01T08:05:42;100551.28;;;25.44;59.18
46690;BME280;32423;45.398;10.874;2022-09-01T08:08:28;100555.59;;;25.49;59.73
46690;BME280;32423;45.398;10.874;2022-09-01T08:11:27;100555.63;;;25.45;57.56
46690;BME280;32423;45.398;10.874;2022-09-01T08:14:13;100554.84;;;25.45;58.09
46690;BME280;32423;45.398;10.874;2022-09-01T08:16:57;100555.94;;;25.51;57.88
46690;BME280;32423;45.398;10.874;2022-09-01T08:19:42;100551.59;;;25.50;58.85
46690;BME280;32423;45.398;10.874;2022-09-01T08:22:30;100551.16;;;25.51;57.80
46690;BME280;32423;45.398;10.874;2022-09-01T08:25:20;100553.16;;;25.51;57.77
46690;BME280;32423;45.398;10.874;2022-09-01T08:28:07;100557.13;;;25.53;57.67
46690;BME280;32423;45.398;10.874;2022-09-01T08:30:52;100557.53;;;25.52;57.06
46690;BME280;32423;45.398;10.874;2022-09-01T08:33:38;100557.94;;;25.50;56.28
46690;BME280;32423;45.398;10.874;2022-09-01T08:36:25;100558.69;;;25.54;58.10
46690;BME280;32423;45.398;10.874;2022-09-01T08:39:10;100561.50;;;25.54;58.64
46690;BME280;32423;45.398;10.874;2022-09-01T08:42:02;100564.25;;;25.58;57.54
46690;BME280;32423;45.398;10.874;2022-09-01T08:44:58;100564.59;;;25.60;57.15
46690;BME280;32423;45.398;10.874;2022-09-01T08:47:51;100557.50;;;25.55;56.48
46690;BME280;32423;45.398;10.874;2022-09-01T08:50:37;100561.50;;;25.54;56.53
46690;BME280;32423;45.398;10.874;2022-09-01T08:53:46;100564.66;;;25.57;56.55
46690;BME280;32423;45.398;10.874;2022-09-01T08:56:34;100568.59;;;25.59;56.97
46690;BME280;32423;45.398;10.874;2022-09-01T08:59:20;100562.19;;;25.62;57.41
46690;BME280;32423;45.398;10.874;2022-09-01T09:05:56;100566.56;;;25.63;56.56
46690;BME280;32423;45.398;10.874;2022-09-01T09:08:59;100569.34;;;25.63;55.97
46690;BME280;32423;45.398;10.874;2022-09-01T09:20:56;100565.03;;;25.59;53.81
46690;BME280;32423;45.398;10.874;2022-09-01T09:23:49;100575.31;;;25.62;54.82
46690;BME280;32423;45.398;10.874;2022-09-01T09:26:37;100573.38;;;25.59;53.80
46690;BME280;32423;45.398;10.874;2022-09-01T09:29:22;100576.53;;;25.61;54.46
46690;BME280;32423;45.398;10.874;2022-09-01T09:32:08;100579.28;;;25.64;55.04
46690;BME280;32423;45.398;10.874;2022-09-01T09:34:53;100576.03;;;25.66;55.33
46690;BME280;32423;45.398;10.874;2022-09-01T09:37:38;100578.03;;;25.65;55.23
46690;BME280;32423;45.398;10.874;2022-09-01T09:40:23;100577.69;;;25.63;53.27
46690;BME280;32423;45.398;10.874;2022-09-01T09:43:13;100578.09;;;25.62;53.59
46690;BME280;32423;45.398;10.874;2022-09-01T09:46:23;100570.13;;;25.64;53.47
46690;BME280;32423;45.398;10.874;2022-09-01T09:55:03;100566.97;;;25.62;52.72
46690;BME280;32423;45.398;10.874;2022-09-01T09:57:49;100557.00;;;25.64;53.42
46690;BME280;32423;45.398;10.874;2022-09-01T10:00:34;100562.09;;;25.69;54.60
46690;BME280;32423;45.398;10.874;2022-09-01T10:03:33;100566.81;;;25.72;52.93
46690;BME280;32423;45.398;10.874;2022-09-01T10:06:30;100554.75;;;25.79;54.40
46690;BME280;32423;45.398;10.874;2022-09-01T10:12:09;100553.91;;;25.82;54.69
46690;BME280;32423;45.398;10.874;2022-09-01T10:15:05;100549.06;;;25.86;54.59
46690;BME280;32423;45.398;10.874;2022-09-01T10:17:52;100542.41;;;25.80;51.96
46690;BME280;32423;45.398;10.874;2022-09-01T10:20:38;100539.56;;;25.83;51.92
46690;BME280;32423;45.398;10.874;2022-09-01T10:23:23;100534.78;;;25.84;51.60
46690;BME280;32423;45.398;10.874;2022-09-01T10:32:24;100529.81;;;25.95;50.49
46690;BME280;32423;45.398;10.874;2022-09-01T10:35:17;100523.38;;;25.98;50.58
46690;BME280;32423;45.398;10.874;2022-09-01T10:38:06;100520.97;;;26.00;51.31
46690;BME280;32423;45.398;10.874;2022-09-01T10:40:54;100531.63;;;26.05;53.12
46690;BME280;32423;45.398;10.874;2022-09-01T10:43:51;100531.97;;;26.07;54.45
46690;BME280;32423;45.398;10.874;2022-09-01T10:55:45;100542.88;;;26.21;53.37
46690;BME280;32423;45.398;10.874;2022-09-01T11:01:15;100533.31;;;26.22;53.23
46690;BME280;32423;45.398;10.874;2022-09-01T11:04:00;100535.28;;;26.25;51.97
46690;BME280;32423;45.398;10.874;2022-09-01T11:07:01;100536.28;;;26.35;51.75
46690;BME280;32423;45.398;10.874;2022-09-01T11:13:32;100532.94;;;27.03;44.66
46690;BME280;32423;45.398;10.874;2022-09-01T11:16:33;100526.81;;;26.92;43.43
46690;BME280;32423;45.398;10.874;2022-09-01T11:34:15;100527.38;;;27.55;43.34
46690;BME280;32423;45.398;10.874;2022-09-01T11:37:01;100523.44;;;27.69;41.37
46690;BME280;32423;45.398;10.874;2022-09-01T11:39:58;100523.00;;;27.86;41.20
46690;BME280;32423;45.398;10.874;2022-09-01T11:42:47;100522.84;;;27.93;42.93
46690;BME280;32423;45.398;10.874;2022-09-01T11:48:46;100516.00;;;28.27;39.42
46690;BME280;32423;45.398;10.874;2022-09-01T11:51:43;100517.56;;;28.28;38.54
46690;BME280;32423;45.398;10.874;2022-09-01T11:54:37;100524.09;;;28.37;39.23
46690;BME280;32423;45.398;10.874;2022-09-01T11:57:26;100525.66;;;27.93;40.97
46690;BME280;32423;45.398;10.874;2022-09-01T12:00:13;100526.59;;;28.03;38.25
46690;BME280;32423;45.398;10.874;2022-09-01T12:03:27;100523.56;;;28.55;37.33
46690;BME280;32423;45.398;10.874;2022-09-01T12:06:21;100528.56;;;28.64;37.93
46690;BME280;32423;45.398;10.874;2022-09-01T12:09:07;100520.78;;;28.55;36.72
46690;BME280;32423;45.398;10.874;2022-09-01T12:11:52;100523.75;;;28.64;36.43
46690;BME280;32423;45.398;10.874;2022-09-01T12:14:37;100529.78;;;29.04;35.70
46690;BME280;32423;45.398;10.874;2022-09-01T12:17:22;100533.84;;;29.41;35.25
46690;BME280;32423;45.398;10.874;2022-09-01T12:26:25;100535.88;;;32.02;30.99
46690;BME280;32423;45.398;10.874;2022-09-01T12:29:12;100536.97;;;34.95;27.31
46690;BME280;32423;45.398;10.874;2022-09-01T12:31:59;100536.63;;;33.21;29.43
46690;BME280;32423;45.398;10.874;2022-09-01T12:34:47;100534.97;;;32.59;30.77
46690;BME280;32423;45.398;10.874;2022-09-01T12:37:42;100534.75;;;34.31;28.11
46690;BME280;32423;45.398;10.874;2022-09-01T12:40:33;100536.38;;;33.33;29.14
46690;BME280;32423;45.398;10.874;2022-09-01T12:43:31;100536.41;;;34.38;28.30
46690;BME280;32423;45.398;10.874;2022-09-01T12:46:39;100532.69;;;34.85;26.81
46690;BME280;32423;45.398;10.874;2022-09-01T12:49:35;100535.75;;;37.92;23.62
46690;BME280;32423;45.398;10.874;2022-09-01T12:52:24;100531.84;;;36.59;24.43
46690;BME280;32423;45.398;10.874;2022-09-01T12:55:19;100527.38;;;34.48;26.79
46690;BME280;32423;45.398;10.874;2022-09-01T12:58:06;100521.28;;;33.78;28.99
46690;BME280;32423;45.398;10.874;2022-09-01T13:00:59;100536.63;;;35.51;27.00
46690;BME280;32423;45.398;10.874;2022-09-01T13:04:05;100520.16;;;34.32;27.93
46690;BME280;32423;45.398;10.874;2022-09-01T13:06:53;100518.19;;;33.01;30.19
46690;BME280;32423;45.398;10.874;2022-09-01T13:09:38;100519.91;;;31.40;31.61
46690;BME280;32423;45.398;10.874;2022-09-01T13:12:23;100515.19;;;31.68;33.04
46690;BME280;32423;45.398;10.874;2022-09-01T13:15:08;100518.66;;;31.32;33.28
46690;BME280;32423;45.398;10.874;2022-09-01T13:17:53;100516.34;;;29.62;35.42
46690;BME280;32423;45.398;10.874;2022-09-01T13:20:38;100517.09;;;30.01;35.28
46690;BME280;32423;45.398;10.874;2022-09-01T13:23:23;100514.53;;;28.80;38.49
46690;BME280;32423;45.398;10.874;2022-09-01T13:26:09;100512.00;;;28.12;38.57
46690;BME280;32423;45.398;10.874;2022-09-01T13:28:54;100517.22;;;28.09;39.00
46690;BME280;32423;45.398;10.874;2022-09-01T13:31:39;100512.19;;;27.88;39.45
46690;BME280;32423;45.398;10.874;2022-09-01T13:34:28;100514.25;;;28.17;39.02
46690;BME280;32423;45.398;10.874;2022-09-01T13:37:13;100509.03;;;28.19;39.05
46690;BME280;32423;45.398;10.874;2022-09-01T13:39:58;100523.28;;;27.92;40.30
46690;BME280;32423;45.398;10.874;2022-09-01T13:42:44;100511.53;;;28.71;38.76
46690;BME280;32423;45.398;10.874;2022-09-01T13:45:30;100513.31;;;29.06;37.55
46690;BME280;32423;45.398;10.874;2022-09-01T13:48:15;100517.16;;;29.25;37.60
46690;BME280;32423;45.398;10.874;2022-09-01T13:51:00;100513.69;;;29.33;37.31
46690;BME280;32423;45.398;10.874;2022-09-01T13:53:45;100523.00;;;29.43;37.75
46690;BME280;32423;45.398;10.874;2022-09-01T13:56:30;100524.44;;;29.48;37.82
46690;BME280;32423;45.398;10.874;2022-09-01T13:59:15;100524.31;;;29.51;37.64
46690;BME280;32423;45.398;10.874;2022-09-01T14:02:00;100527.13;;;29.51;37.67
46690;BME280;32423;45.398;10.874;2022-09-01T14:04:45;100527.59;;;29.50;37.50
46690;BME280;32423;45.398;10.874;2022-09-01T14:07:30;100533.97;;;29.50;38.92
46690;BME280;32423;45.398;10.874;2022-09-01T14:10:17;100535.53;;;29.51;39.38
46690;BME280;32423;45.398;10.874;2022-09-01T14:13:02;100536.56;;;29.45;39.32
46690;BME280;32423;45.398;10.874;2022-09-01T14:15:47;100533.53;;;29.39;39.68
46690;BME280;32423;45.398;10.874;2022-09-01T14:18:34;100536.09;;;29.33;39.63
46690;BME280;32423;45.398;10.874;2022-09-01T14:21:20;100531.47;;;29.27;40.33
46690;BME280;32423;45.398;10.874;2022-09-01T14:24:05;100530.44;;;29.21;40.47
46690;BME280;32423;45.398;10.874;2022-09-01T14:26:49;100531.00;;;29.16;40.60
46690;BME280;32423;45.398;10.874;2022-09-01T14:29:34;100521.63;;;29.10;40.69
46690;BME280;32423;45.398;10.874;2022-09-01T14:32:20;100509.84;;;29.02;41.02
46690;BME280;32423;45.398;10.874;2022-09-01T14:35:10;100516.44;;;28.96;41.60
46690;BME280;32423;45.398;10.874;2022-09-01T14:37:55;100507.03;;;28.89;41.81
46690;BME280;32423;45.398;10.874;2022-09-01T14:40:42;100502.31;;;28.86;42.60
46690;BME280;32423;45.398;10.874;2022-09-01T14:43:30;100518.44;;;28.82;43.03
46690;BME280;32423;45.398;10.874;2022-09-01T14:46:17;100518.19;;;28.77;44.20
46690;BME280;32423;45.398;10.874;2022-09-01T14:49:04;100525.41;;;28.33;45.78
46690;BME280;32423;45.398;10.874;2022-09-01T14:51:50;100526.13;;;28.21;46.11
46690;BME280;32423;45.398;10.874;2022-09-01T14:54:37;100526.50;;;28.23;46.50
46690;BME280;32423;45.398;10.874;2022-09-01T14:57:23;100521.97;;;28.13;47.12
46690;BME280;32423;45.398;10.874;2022-09-01T15:00:09;100520.91;;;28.23;46.95
46690;BME280;32423;45.398;10.874;2022-09-01T15:02:56;100510.78;;;28.13;46.89
46690;BME280;32423;45.398;10.874;2022-09-01T15:05:41;100511.56;;;28.13;47.15
46690;BME280;32423;45.398;10.874;2022-09-01T15:08:26;100513.84;;;28.18;46.83
46690;BME280;32423;45.398;10.874;2022-09-01T15:11:16;100510.09;;;28.37;46.29
46690;BME280;32423;45.398;10.874;2022-09-01T15:14:01;100510.25;;;28.46;46.08
46690;BME280;32423;45.398;10.874;2022-09-01T15:16:46;100514.44;;;28.67;45.91
46690;BME280;32423;45.398;10.874;2022-09-01T15:19:31;100499.97;;;28.85;43.28
46690;BME280;32423;45.398;10.874;2022-09-01T15:22:16;100498.94;;;28.91;45.17
46690;BME280;32423;45.398;10.874;2022-09-01T15:25:01;100500.41;;;28.83;42.62
46690;BME280;32423;45.398;10.874;2022-09-01T15:27:46;100494.28;;;28.60;41.32
46690;BME280;32423;45.398;10.874;2022-09-01T15:30:32;100498.09;;;28.66;40.34
46690;BME280;32423;45.398;10.874;2022-09-01T15:33:17;100498.97;;;28.05;41.11
46690;BME280;32423;45.398;10.874;2022-09-01T15:36:02;100507.97;;;27.32;40.54